createdAt,value
2017-08-06T00:00:56.261Z,12.5
2017-08-06T00:02:03.136Z,12.5
2017-08-06T00:03:06.873Z,12.4
2017-08-06T00:04:11.619Z,12.4
2017-08-06T00:05:15.788Z,12.3
2017-08-06T00:06:20.621Z,12.3
2017-08-06T00:07:25.801Z,12.2
2017-08-06T00:08:32.885Z,12.2
2017-08-06T00:09:38.123Z,12.2
2017-08-06T00:10:45.241Z,12.1
2017-08-06T00:11:52.930Z,12.1
2017-08-06T00:13:01.710Z,12.0
2017-08-06T00:14:08.407Z,12.0
2017-08-06T00:15:13.645Z,12.0
2017-08-06T00:16:19.440Z,11.9
2017-08-06T00:17:24.120Z,11.9
2017-08-06T00:18:30.949Z,11.9
2017-08-06T00:19:34.957Z,11.9
2017-08-06T00:20:38.692Z,11.9
2017-08-06T00:21:46.073Z,11.9
2017-08-06T00:22:50.704Z,11.8
2017-08-06T00:23:57.719Z,11.9
2017-08-06T00:25:04.577Z,11.9
2017-08-06T00:26:08.861Z,11.8
2017-08-06T00:27:15.229Z,11.8
2017-08-06T00:28:20.639Z,11.7
2017-08-06T00:29:25.434Z,11.7
2017-08-06T00:30:29.938Z,11.7
2017-08-06T00:31:35.439Z,11.6
2017-08-06T00:32:41.632Z,11.7
2017-08-06T00:33:48.292Z,11.7
2017-08-06T00:34:54.048Z,11.7
2017-08-06T00:36:00.042Z,11.8
2017-08-06T00:37:04.675Z,11.8
2017-08-06T00:38:08.472Z,11.7
2017-08-06T00:39:14.546Z,11.7
2017-08-06T00:40:19.949Z,11.8
2017-08-06T00:41:24.697Z,11.7
2017-08-06T00:42:30.759Z,11.7
2017-08-06T00:43:37.977Z,11.7
2017-08-06T00:44:42.668Z,11.7
2017-08-06T00:45:51.304Z,11.7
2017-08-06T00:46:59.368Z,11.8
2017-08-06T00:48:06.483Z,11.9
2017-08-06T00:49:11.088Z,11.9
2017-08-06T00:50:15.771Z,11.8
2017-08-06T00:51:21.043Z,11.7
2017-08-06T00:52:25.361Z,11.8
2017-08-06T00:53:30.490Z,11.7
2017-08-06T00:54:35.491Z,11.7
2017-08-06T00:55:41.204Z,11.6
2017-08-06T00:56:46.803Z,11.6
2017-08-06T00:57:53.014Z,11.7
2017-08-06T00:58:57.226Z,11.7
2017-08-06T01:00:01.944Z,11.6
2017-08-06T01:01:06.485Z,11.6
2017-08-06T01:02:10.258Z,11.6
2017-08-06T01:03:16.492Z,11.6
2017-08-06T01:04:20.796Z,11.5
2017-08-06T01:05:24.826Z,11.4
2017-08-06T01:06:30.318Z,11.3
2017-08-06T01:07:34.822Z,11.3
2017-08-06T01:08:41.220Z,11.3
2017-08-06T01:09:46.793Z,11.3
2017-08-06T01:10:53.029Z,11.3
2017-08-06T01:11:58.709Z,11.3
2017-08-06T01:13:04.097Z,11.3
2017-08-06T01:14:08.245Z,11.3
2017-08-06T01:15:14.920Z,11.3
2017-08-06T01:16:20.028Z,11.4
2017-08-06T01:17:24.123Z,11.3
2017-08-06T01:18:29.201Z,11.2
2017-08-06T01:19:34.026Z,11.2
2017-08-06T01:20:37.861Z,11.2
2017-08-06T01:21:43.981Z,11.3
2017-08-06T01:22:47.923Z,11.3
2017-08-06T01:23:52.695Z,11.4
2017-08-06T01:24:57.516Z,11.5
2017-08-06T01:26:02.743Z,11.5
2017-08-06T01:27:09.656Z,11.3
2017-08-06T01:28:14.705Z,11.3
2017-08-06T01:29:21.563Z,11.4
2017-08-06T01:30:27.768Z,11.4
2017-08-06T01:31:36.579Z,11.3
2017-08-06T01:32:41.728Z,11.2
2017-08-06T01:33:46.777Z,11.2
2017-08-06T01:34:52.578Z,11.1
2017-08-06T01:35:59.057Z,11.0
2017-08-06T01:37:06.559Z,11.0
2017-08-06T01:38:11.403Z,11.0
2017-08-06T01:39:18.745Z,11.0
2017-08-06T01:40:27.721Z,11.1
2017-08-06T01:41:34.117Z,11.3
2017-08-06T01:42:39.925Z,11.3
2017-08-06T01:43:46.592Z,11.3
2017-08-06T01:44:50.509Z,11.3
2017-08-06T01:45:57.263Z,11.4
2017-08-06T01:47:03.636Z,11.6
2017-08-06T01:48:13.290Z,11.6
2017-08-06T01:49:22.577Z,11.5
2017-08-06T01:50:28.899Z,11.5
2017-08-06T01:51:35.580Z,11.4
2017-08-06T01:52:45.750Z,11.4
2017-08-06T01:53:52.898Z,11.5
2017-08-06T01:54:57.910Z,11.4
2017-08-06T01:56:03.720Z,11.5
2017-08-06T01:57:09.594Z,11.5
2017-08-06T01:58:15.965Z,11.7
2017-08-06T01:59:21.715Z,11.8
2017-08-06T02:00:26.704Z,11.7
2017-08-06T02:01:31.491Z,11.6
2017-08-06T02:02:40.100Z,11.5
2017-08-06T02:03:43.331Z,11.4
2017-08-06T02:04:47.871Z,11.3
2017-08-06T02:05:54.832Z,11.2
2017-08-06T02:06:59.447Z,11.3
2017-08-06T02:08:05.766Z,11.3
2017-08-06T02:09:11.167Z,11.3
2017-08-06T02:10:16.963Z,11.4
2017-08-06T02:11:21.592Z,11.4
2017-08-06T02:12:25.985Z,11.3
2017-08-06T02:13:32.402Z,11.3
2017-08-06T02:14:36.584Z,11.3
2017-08-06T02:15:43.742Z,11.3
2017-08-06T02:16:52.148Z,11.3
2017-08-06T02:17:57.794Z,11.3
2017-08-06T02:19:02.652Z,11.4
2017-08-06T02:20:08.644Z,11.4
2017-08-06T02:21:14.272Z,11.3
2017-08-06T02:22:20.406Z,11.3
2017-08-06T02:23:26.924Z,11.2
2017-08-06T02:24:34.632Z,11.1
2017-08-06T02:25:40.771Z,11.1
2017-08-06T02:26:44.438Z,11.0
2017-08-06T02:27:50.136Z,10.9
2017-08-06T02:28:54.757Z,11.0
2017-08-06T02:30:01.863Z,10.9
2017-08-06T02:31:08.079Z,10.8
2017-08-06T02:32:15.427Z,10.8
2017-08-06T02:33:20.732Z,10.9
2017-08-06T02:34:26.301Z,10.8
2017-08-06T02:35:34.660Z,10.7
2017-08-06T02:36:38.451Z,10.6
2017-08-06T02:37:43.910Z,10.6
2017-08-06T02:38:48.976Z,10.6
2017-08-06T02:39:52.952Z,10.6
2017-08-06T02:40:58.316Z,10.6
2017-08-06T02:42:03.173Z,10.5
2017-08-06T02:43:07.400Z,10.5
2017-08-06T02:44:12.774Z,10.4
2017-08-06T02:45:18.347Z,10.5
2017-08-06T02:46:23.806Z,10.5
2017-08-06T02:47:29.677Z,10.6
2017-08-06T02:48:34.321Z,10.6
2017-08-06T02:49:40.331Z,10.5
2017-08-06T02:50:43.668Z,10.6
2017-08-06T02:51:49.020Z,10.7
2017-08-06T02:52:55.314Z,10.7
2017-08-06T02:53:59.536Z,10.6
2017-08-06T02:55:08.835Z,10.5
2017-08-06T02:56:14.179Z,10.4
2017-08-06T02:57:18.687Z,10.4
2017-08-06T02:58:25.203Z,10.3
2017-08-06T02:59:29.800Z,10.3
2017-08-06T03:00:36.194Z,10.4
2017-08-06T03:01:42.505Z,10.4
2017-08-06T03:02:48.515Z,10.4
2017-08-06T03:03:54.286Z,10.3
2017-08-06T03:05:00.212Z,10.3
2017-08-06T03:06:05.887Z,10.4
2017-08-06T03:07:11.958Z,10.4
2017-08-06T03:08:18.009Z,10.3
2017-08-06T03:09:23.218Z,10.2
2017-08-06T03:10:27.472Z,10.2
2017-08-06T03:11:32.868Z,10.2
2017-08-06T03:12:38.955Z,10.3
2017-08-06T03:13:46.106Z,10.1
2017-08-06T03:14:50.713Z,10.1
2017-08-06T03:15:56.418Z,10.0
2017-08-06T03:17:02.013Z,10.1
2017-08-06T03:18:06.921Z,10.0
2017-08-06T03:19:12.406Z,10.1
2017-08-06T03:20:18.413Z,10.1
2017-08-06T03:21:25.956Z,10.0
2017-08-06T03:22:29.956Z,9.9
2017-08-06T03:23:34.227Z,9.9
2017-08-06T03:24:39.723Z,10.0
2017-08-06T03:25:45.100Z,10.1
2017-08-06T03:26:49.897Z,10.1
2017-08-06T03:27:55.842Z,10.2
2017-08-06T03:29:03.229Z,10.2
2017-08-06T03:30:10.342Z,10.2
2017-08-06T03:31:15.073Z,10.3
2017-08-06T03:32:20.467Z,10.2
2017-08-06T03:33:26.376Z,10.1
2017-08-06T03:34:31.432Z,10.0
2017-08-06T03:35:37.516Z,10.0
2017-08-06T03:36:41.524Z,10.0
2017-08-06T03:37:49.884Z,10.0
2017-08-06T03:38:54.918Z,9.9
2017-08-06T03:40:02.026Z,9.8
2017-08-06T03:41:07.673Z,9.8
2017-08-06T03:42:13.289Z,9.9
2017-08-06T03:43:18.756Z,9.8
2017-08-06T03:44:24.922Z,9.8
2017-08-06T03:45:30.467Z,9.9
2017-08-06T03:46:34.698Z,9.9
2017-08-06T03:47:41.447Z,9.9
2017-08-06T03:48:45.799Z,9.9
2017-08-06T03:49:50.418Z,10.0
2017-08-06T03:50:58.265Z,10.0
2017-08-06T03:52:03.918Z,10.0
2017-08-06T03:53:09.770Z,10.0
2017-08-06T03:54:14.768Z,10.1
2017-08-06T03:55:18.884Z,10.1
2017-08-06T03:56:24.279Z,10.1
2017-08-06T03:57:28.772Z,10.2
2017-08-06T03:58:35.440Z,10.3
2017-08-06T03:59:42.010Z,10.7
2017-08-06T04:00:49.789Z,11.0
2017-08-06T04:01:53.922Z,11.4
2017-08-06T04:02:58.743Z,11.4
2017-08-06T04:04:03.783Z,11.5
2017-08-06T04:05:07.409Z,11.4
2017-08-06T04:06:12.658Z,11.3
2017-08-06T04:07:18.443Z,11.4
2017-08-06T04:08:25.146Z,11.3
2017-08-06T04:09:30.293Z,11.3
2017-08-06T04:10:33.350Z,11.3
2017-08-06T04:11:39.021Z,11.3
2017-08-06T04:12:47.814Z,11.4
2017-08-06T04:13:53.179Z,11.4
2017-08-06T04:14:56.984Z,11.2
2017-08-06T04:16:02.988Z,11.1
2017-08-06T04:17:07.406Z,11.1
2017-08-06T04:18:12.638Z,11.1
2017-08-06T04:19:16.520Z,11.1
2017-08-06T04:20:22.385Z,11.2
2017-08-06T04:21:30.309Z,11.4
2017-08-06T04:22:34.903Z,11.6
2017-08-06T04:23:39.916Z,11.8
2017-08-06T04:24:45.703Z,12.0
2017-08-06T04:25:50.817Z,12.3
2017-08-06T04:26:55.371Z,12.5
2017-08-06T04:28:00.633Z,12.4
2017-08-06T04:29:06.674Z,12.5
2017-08-06T04:30:13.414Z,12.4
2017-08-06T04:31:17.956Z,12.4
2017-08-06T04:32:24.017Z,12.2
2017-08-06T04:33:29.479Z,12.2
2017-08-06T04:34:35.021Z,12.1
2017-08-06T04:35:40.928Z,12.0
2017-08-06T04:36:44.868Z,11.9
2017-08-06T04:37:49.247Z,11.9
2017-08-06T04:38:55.140Z,11.8
2017-08-06T04:40:01.844Z,11.8
2017-08-06T04:41:05.776Z,11.6
2017-08-06T04:42:11.437Z,11.6
2017-08-06T04:43:16.567Z,11.6
2017-08-06T04:44:22.883Z,11.5
2017-08-06T04:45:29.959Z,11.6
2017-08-06T04:46:36.353Z,11.7
2017-08-06T04:47:41.784Z,11.8
2017-08-06T04:48:47.692Z,11.7
2017-08-06T04:49:54.357Z,11.7
2017-08-06T04:51:00.297Z,11.6
2017-08-06T04:52:05.036Z,11.7
2017-08-06T04:53:11.360Z,11.7
2017-08-06T04:54:14.609Z,11.7
2017-08-06T04:55:20.598Z,11.7
2017-08-06T04:56:25.668Z,11.8
2017-08-06T04:57:31.501Z,11.9
2017-08-06T04:58:37.135Z,11.8
2017-08-06T04:59:44.883Z,11.8
2017-08-06T05:00:49.027Z,11.8
2017-08-06T05:01:54.105Z,11.8
2017-08-06T05:02:58.980Z,11.7
2017-08-06T05:04:04.398Z,11.7
2017-08-06T05:05:09.324Z,11.7
2017-08-06T05:06:14.797Z,11.7
2017-08-06T05:07:17.986Z,11.7
2017-08-06T05:08:21.259Z,11.8
2017-08-06T05:09:25.892Z,11.8
2017-08-06T05:10:31.430Z,11.9
2017-08-06T05:11:36.494Z,12.1
2017-08-06T05:12:41.119Z,12.2
2017-08-06T05:13:47.393Z,12.2
2017-08-06T05:14:54.395Z,12.2
2017-08-06T05:16:00.268Z,12.1
2017-08-06T05:17:05.260Z,12.1
2017-08-06T05:18:11.214Z,12.1
2017-08-06T05:19:16.408Z,12.2
2017-08-06T05:20:21.158Z,12.3
2017-08-06T05:21:26.509Z,12.2
2017-08-06T05:22:32.659Z,12.2
2017-08-06T05:23:37.238Z,12.3
2017-08-06T05:24:43.838Z,12.4
2017-08-06T05:25:50.571Z,12.4
2017-08-06T05:26:56.024Z,12.4
2017-08-06T05:28:00.458Z,12.4
2017-08-06T05:29:05.295Z,12.5
2017-08-06T05:30:12.131Z,12.6
2017-08-06T05:31:18.665Z,12.7
2017-08-06T05:32:24.649Z,12.9
2017-08-06T05:33:29.083Z,12.9
2017-08-06T05:34:35.486Z,13.0
2017-08-06T05:35:43.651Z,13.0
2017-08-06T05:36:49.242Z,13.0
2017-08-06T05:37:54.467Z,13.0
2017-08-06T05:39:02.434Z,13.0
2017-08-06T05:40:08.701Z,13.0
2017-08-06T05:41:13.000Z,12.9
2017-08-06T05:42:19.645Z,12.9
2017-08-06T05:43:24.721Z,13.0
2017-08-06T05:44:32.411Z,13.0
2017-08-06T05:45:39.099Z,13.0
2017-08-06T05:46:45.594Z,13.0
2017-08-06T05:47:50.896Z,13.0
2017-08-06T05:48:58.120Z,13.1
2017-08-06T05:50:02.566Z,13.2
2017-08-06T05:51:08.951Z,13.3
2017-08-06T05:52:15.287Z,13.4
2017-08-06T05:53:20.534Z,13.5
2017-08-06T05:54:26.033Z,13.6
2017-08-06T05:55:31.702Z,13.6
2017-08-06T05:56:36.960Z,13.6
2017-08-06T05:57:40.289Z,13.6
2017-08-06T05:58:48.086Z,13.6
2017-08-06T05:59:54.962Z,13.6
2017-08-06T06:00:59.590Z,13.6
2017-08-06T06:02:03.536Z,13.5
2017-08-06T06:03:08.974Z,13.6
2017-08-06T06:04:14.177Z,13.6
2017-08-06T06:05:21.215Z,13.6
2017-08-06T06:06:25.275Z,13.6
2017-08-06T06:07:33.431Z,13.7
2017-08-06T06:08:40.922Z,13.7
2017-08-06T06:09:45.204Z,13.7
2017-08-06T06:10:51.483Z,13.7
2017-08-06T06:11:58.981Z,13.8
2017-08-06T06:13:03.487Z,13.8
2017-08-06T06:14:09.989Z,13.9
2017-08-06T06:15:14.617Z,13.9
2017-08-06T06:16:23.991Z,14.0
2017-08-06T06:17:28.215Z,14.0
2017-08-06T06:18:35.630Z,14.1
2017-08-06T06:19:42.493Z,14.2
2017-08-06T06:20:49.870Z,14.2
2017-08-06T06:21:55.835Z,14.2
2017-08-06T06:23:03.286Z,14.2
2017-08-06T06:24:09.405Z,14.3
2017-08-06T06:25:14.800Z,14.3
2017-08-06T06:26:22.690Z,14.3
2017-08-06T06:27:30.009Z,14.3
2017-08-06T06:28:33.586Z,14.3
2017-08-06T06:29:39.361Z,14.3
2017-08-06T06:30:46.267Z,14.4
2017-08-06T06:31:50.621Z,14.4
2017-08-06T06:32:56.265Z,14.4
2017-08-06T06:34:00.517Z,14.4
2017-08-06T06:35:04.849Z,14.5
2017-08-06T06:36:11.357Z,14.6
2017-08-06T06:37:16.966Z,14.6
2017-08-06T06:38:22.669Z,14.5
2017-08-06T06:39:28.562Z,14.5
2017-08-06T06:40:34.170Z,14.5
2017-08-06T06:41:41.139Z,14.6
2017-08-06T06:42:46.604Z,14.7
2017-08-06T06:43:51.866Z,14.8
2017-08-06T06:45:00.269Z,14.7
2017-08-06T06:46:06.980Z,14.6
2017-08-06T06:47:12.536Z,14.6
2017-08-06T06:48:18.542Z,14.7
2017-08-06T06:49:23.877Z,14.8
2017-08-06T06:50:30.724Z,14.8
2017-08-06T06:51:35.483Z,15.0
2017-08-06T06:52:41.923Z,15.1
2017-08-06T06:53:47.312Z,15.1
2017-08-06T06:54:52.555Z,15.0
2017-08-06T06:55:58.841Z,15.0
2017-08-06T06:57:02.133Z,15.1
2017-08-06T06:58:07.835Z,15.2
2017-08-06T06:59:12.579Z,15.2
2017-08-06T07:00:19.391Z,15.2
2017-08-06T07:01:24.854Z,15.3
2017-08-06T07:02:31.998Z,15.3
2017-08-06T07:03:39.068Z,15.3
2017-08-06T07:04:45.234Z,15.3
2017-08-06T07:05:51.213Z,15.4
2017-08-06T07:06:57.056Z,15.4
2017-08-06T07:08:04.581Z,15.4
2017-08-06T07:09:13.582Z,15.5
2017-08-06T07:10:17.839Z,15.5
2017-08-06T07:11:24.577Z,15.5
2017-08-06T07:12:29.247Z,15.6
2017-08-06T07:13:35.617Z,15.7
2017-08-06T07:14:41.136Z,15.7
2017-08-06T07:15:48.204Z,15.8
2017-08-06T07:16:54.319Z,15.8
2017-08-06T07:17:59.331Z,15.9
2017-08-06T07:19:05.601Z,15.9
2017-08-06T07:20:10.817Z,16.0
2017-08-06T07:21:18.595Z,16.1
2017-08-06T07:22:25.360Z,16.2
2017-08-06T07:23:30.222Z,16.3
2017-08-06T07:24:34.097Z,16.4
2017-08-06T07:25:39.097Z,16.5
2017-08-06T07:26:46.113Z,16.6
2017-08-06T07:27:53.106Z,16.6
2017-08-06T07:28:58.875Z,16.8
2017-08-06T07:30:03.453Z,16.9
2017-08-06T07:31:10.432Z,16.9
2017-08-06T07:32:19.016Z,16.8
2017-08-06T07:33:26.836Z,16.6
2017-08-06T07:34:35.154Z,16.5
2017-08-06T07:35:39.871Z,16.4
2017-08-06T07:36:47.115Z,16.4
2017-08-06T07:37:51.486Z,16.4
2017-08-06T07:38:58.499Z,16.6
2017-08-06T07:40:05.539Z,16.8
2017-08-06T07:41:11.260Z,17.0
2017-08-06T07:42:18.017Z,17.1
2017-08-06T07:43:24.746Z,17.2
2017-08-06T07:44:32.801Z,17.3
2017-08-06T07:45:39.282Z,17.4
2017-08-06T07:46:45.250Z,17.6
2017-08-06T07:47:50.616Z,17.9
2017-08-06T07:48:56.940Z,18.1
2017-08-06T07:50:03.859Z,18.0
2017-08-06T07:51:10.887Z,17.9
2017-08-06T07:52:15.805Z,17.7
2017-08-06T07:53:23.174Z,17.7
2017-08-06T07:54:28.168Z,17.8
2017-08-06T07:55:33.420Z,17.9
2017-08-06T07:56:37.854Z,18.1
2017-08-06T07:57:44.355Z,18.2
2017-08-06T07:58:48.982Z,18.3
2017-08-06T07:59:55.951Z,18.3
2017-08-06T08:01:01.147Z,18.4
2017-08-06T08:02:06.780Z,18.5
2017-08-06T08:03:13.248Z,18.6
2017-08-06T08:04:18.153Z,18.7
2017-08-06T08:05:23.667Z,18.9
2017-08-06T08:06:29.164Z,18.9
2017-08-06T08:07:34.765Z,19.0
2017-08-06T08:08:41.948Z,19.0
2017-08-06T08:09:49.168Z,19.0
2017-08-06T08:10:55.628Z,18.9
2017-08-06T08:12:01.007Z,18.8
2017-08-06T08:13:05.646Z,18.7
2017-08-06T08:14:14.271Z,18.6
2017-08-06T08:15:19.664Z,18.6
2017-08-06T08:16:25.693Z,18.6
2017-08-06T08:17:28.974Z,18.6
2017-08-06T08:18:37.333Z,18.6
2017-08-06T08:19:41.877Z,18.6
2017-08-06T08:20:46.695Z,18.8
2017-08-06T08:21:52.693Z,18.9
2017-08-06T08:22:58.851Z,19.0
2017-08-06T08:24:06.191Z,19.1
2017-08-06T08:25:11.205Z,19.1
2017-08-06T08:26:16.968Z,19.0
2017-08-06T08:27:25.698Z,18.8
2017-08-06T08:28:31.133Z,18.6
2017-08-06T08:29:35.376Z,18.4
2017-08-06T08:30:41.430Z,18.2
2017-08-06T08:31:47.533Z,18.1
2017-08-06T08:32:55.709Z,17.9
2017-08-06T08:34:02.708Z,17.9
2017-08-06T08:35:09.860Z,17.8
2017-08-06T08:36:15.715Z,17.8
2017-08-06T08:37:21.392Z,17.7
2017-08-06T08:38:29.563Z,17.6
2017-08-06T08:39:35.215Z,17.7
2017-08-06T08:40:43.033Z,17.7
2017-08-06T08:41:50.999Z,17.8
2017-08-06T08:42:55.781Z,18.0
2017-08-06T08:44:00.126Z,18.4
2017-08-06T08:45:07.355Z,18.8
2017-08-06T08:46:14.345Z,19.3
2017-08-06T08:47:21.254Z,19.7
2017-08-06T08:48:26.340Z,19.9
2017-08-06T08:49:31.483Z,20.3
2017-08-06T08:50:38.649Z,20.6
2017-08-06T08:51:47.738Z,20.7
2017-08-06T08:52:52.564Z,20.9
2017-08-06T08:53:59.353Z,21.0
2017-08-06T08:55:07.243Z,21.0
2017-08-06T08:56:11.793Z,21.1
2017-08-06T08:57:18.770Z,21.3
2017-08-06T08:58:23.772Z,21.4
2017-08-06T08:59:31.927Z,21.3
2017-08-06T09:00:38.419Z,21.2
2017-08-06T09:01:46.347Z,21.1
2017-08-06T09:02:52.260Z,21.0
2017-08-06T09:03:56.143Z,20.9
2017-08-06T09:05:03.264Z,20.9
2017-08-06T09:06:08.055Z,20.7
2017-08-06T09:07:13.420Z,20.6
2017-08-06T09:08:19.601Z,20.5
2017-08-06T09:09:26.770Z,20.4
2017-08-06T09:10:30.680Z,20.2
2017-08-06T09:11:35.907Z,20.0
2017-08-06T09:12:41.278Z,19.8
2017-08-06T09:13:47.930Z,19.7
2017-08-06T09:14:53.420Z,19.6
2017-08-06T09:16:01.815Z,19.5
2017-08-06T09:17:07.516Z,19.4
2017-08-06T09:18:13.547Z,19.5
2017-08-06T09:19:19.608Z,19.6
2017-08-06T09:20:25.389Z,19.7
2017-08-06T09:21:31.799Z,19.8
2017-08-06T09:22:37.410Z,20.0
2017-08-06T09:23:44.589Z,20.3
2017-08-06T09:24:50.792Z,20.5
2017-08-06T09:25:59.299Z,20.8
2017-08-06T09:27:09.816Z,21.0
2017-08-06T09:28:17.687Z,21.2
2017-08-06T09:29:24.673Z,21.5
2017-08-06T09:30:28.828Z,21.8
2017-08-06T09:31:35.810Z,22.1
2017-08-06T09:32:40.252Z,22.4
2017-08-06T09:33:45.960Z,22.6
2017-08-06T09:34:51.492Z,23.0
2017-08-06T09:35:57.960Z,23.2
2017-08-06T09:37:02.813Z,23.3
2017-08-06T09:38:10.985Z,22.9
2017-08-06T09:39:16.603Z,22.6
2017-08-06T09:40:21.971Z,22.2
2017-08-06T09:41:26.995Z,21.9
2017-08-06T09:42:35.004Z,21.8
2017-08-06T09:43:39.656Z,21.6
2017-08-06T09:44:45.587Z,21.4
2017-08-06T09:45:51.061Z,21.3
2017-08-06T09:46:58.843Z,21.3
2017-08-06T09:48:06.380Z,21.2
2017-08-06T09:49:12.375Z,21.2
2017-08-06T09:50:17.107Z,21.2
2017-08-06T09:51:24.843Z,21.3
2017-08-06T09:52:29.947Z,21.3
2017-08-06T09:53:38.583Z,21.4
2017-08-06T09:54:43.041Z,21.6
2017-08-06T09:55:49.595Z,21.5
2017-08-06T09:56:56.090Z,21.5
2017-08-06T09:58:03.973Z,21.6
2017-08-06T09:59:09.857Z,21.6
2017-08-06T10:00:16.195Z,21.7
2017-08-06T10:01:26.856Z,21.8
2017-08-06T10:02:32.595Z,21.7
2017-08-06T10:03:38.194Z,21.7
2017-08-06T10:04:46.557Z,21.6
2017-08-06T10:05:52.657Z,21.5
2017-08-06T10:06:56.907Z,21.6
2017-08-06T10:08:01.879Z,21.6
2017-08-06T10:09:06.264Z,21.6
2017-08-06T10:10:13.075Z,21.7
2017-08-06T10:11:19.124Z,21.8
2017-08-06T10:12:25.706Z,21.8
2017-08-06T10:13:32.048Z,21.5
2017-08-06T10:14:37.311Z,21.4
2017-08-06T10:15:42.102Z,21.5
2017-08-06T10:16:49.884Z,21.6
2017-08-06T10:17:54.392Z,21.6
2017-08-06T10:18:59.725Z,21.8
2017-08-06T10:20:09.336Z,21.9
2017-08-06T10:21:15.835Z,22.3
2017-08-06T10:22:22.907Z,22.5
2017-08-06T10:23:27.892Z,22.8
2017-08-06T10:24:33.691Z,23.0
2017-08-06T10:25:38.575Z,23.2
2017-08-06T10:26:44.474Z,23.2
2017-08-06T10:27:51.203Z,23.2
2017-08-06T10:28:59.433Z,23.0
2017-08-06T10:30:03.984Z,22.8
2017-08-06T10:31:10.418Z,22.6
2017-08-06T10:32:18.815Z,22.4
2017-08-06T10:33:24.914Z,22.2
2017-08-06T10:34:31.244Z,21.9
2017-08-06T10:35:38.182Z,21.8
2017-08-06T10:36:44.653Z,21.8
2017-08-06T10:37:54.415Z,21.7
2017-08-06T10:39:02.428Z,21.5
2017-08-06T10:40:07.968Z,21.3
2017-08-06T10:41:14.642Z,21.2
2017-08-06T10:42:21.653Z,21.1
2017-08-06T10:43:27.424Z,21.0
2017-08-06T10:44:34.545Z,21.2
2017-08-06T10:45:39.436Z,21.3
2017-08-06T10:46:44.326Z,21.4
2017-08-06T10:47:52.185Z,21.5
2017-08-06T10:48:58.486Z,21.4
2017-08-06T10:50:05.101Z,21.2
2017-08-06T10:51:11.438Z,21.1
2017-08-06T10:52:18.447Z,21.0
2017-08-06T10:53:23.302Z,21.0
2017-08-06T10:54:31.446Z,21.1
2017-08-06T10:55:37.445Z,21.3
2017-08-06T10:56:42.548Z,21.5
2017-08-06T10:57:51.460Z,21.8
2017-08-06T10:58:56.372Z,22.0
2017-08-06T11:00:02.287Z,22.0
2017-08-06T11:01:07.049Z,21.9
2017-08-06T11:02:13.985Z,22.0
2017-08-06T11:03:20.809Z,22.0
2017-08-06T11:04:29.466Z,22.0
2017-08-06T11:05:34.701Z,22.0
2017-08-06T11:06:42.969Z,21.7
2017-08-06T11:07:47.794Z,21.5
2017-08-06T11:08:54.975Z,21.4
2017-08-06T11:10:01.688Z,21.3
2017-08-06T11:11:08.206Z,21.2
2017-08-06T11:12:14.441Z,21.4
2017-08-06T11:13:20.801Z,21.5
2017-08-06T11:14:26.161Z,21.8
2017-08-06T11:15:33.480Z,22.0
2017-08-06T11:16:40.983Z,22.1
2017-08-06T11:17:46.484Z,22.4
2017-08-06T11:18:54.519Z,22.6
2017-08-06T11:20:01.079Z,22.7
2017-08-06T11:21:08.989Z,22.8
2017-08-06T11:22:15.176Z,22.7
2017-08-06T11:23:20.669Z,22.7
2017-08-06T11:24:26.053Z,22.7
2017-08-06T11:25:31.770Z,22.8
2017-08-06T11:26:38.000Z,22.8
2017-08-06T11:27:43.879Z,22.9
2017-08-06T11:28:49.723Z,22.8
2017-08-06T11:29:56.731Z,22.6
2017-08-06T11:31:02.140Z,22.6
2017-08-06T11:32:07.115Z,22.5
2017-08-06T11:33:11.986Z,22.3
2017-08-06T11:34:19.157Z,22.0
2017-08-06T11:35:23.711Z,21.8
2017-08-06T11:36:31.016Z,21.8
2017-08-06T11:37:35.801Z,21.8
2017-08-06T11:38:44.173Z,22.1
2017-08-06T11:39:51.699Z,22.3
2017-08-06T11:40:59.800Z,22.2
2017-08-06T11:42:05.201Z,22.3
2017-08-06T11:43:12.906Z,22.3
2017-08-06T11:44:16.897Z,22.3
2017-08-06T11:45:23.532Z,22.5
2017-08-06T11:46:27.232Z,22.7
2017-08-06T11:47:33.538Z,23.0
2017-08-06T11:48:39.505Z,23.3
2017-08-06T11:49:46.555Z,23.2
2017-08-06T11:50:53.544Z,23.0
2017-08-06T11:51:58.928Z,22.7
2017-08-06T11:53:04.738Z,22.6
2017-08-06T11:54:11.546Z,22.5
2017-08-06T11:55:19.645Z,22.5
2017-08-06T11:56:26.550Z,22.4
2017-08-06T11:57:31.741Z,22.3
2017-08-06T11:58:37.555Z,22.1
2017-08-06T11:59:43.860Z,21.9
2017-08-06T12:00:54.648Z,21.7
2017-08-06T12:02:02.567Z,21.7
2017-08-06T12:03:05.873Z,21.8
2017-08-06T12:04:12.066Z,22.0
2017-08-06T12:05:19.065Z,22.2
2017-08-06T12:06:25.569Z,22.3
2017-08-06T12:07:29.711Z,22.5
2017-08-06T12:08:36.631Z,22.4
2017-08-06T12:09:43.835Z,22.6
2017-08-06T12:10:51.576Z,22.8
2017-08-06T12:12:00.077Z,22.9
2017-08-06T12:13:08.078Z,23.0
2017-08-06T12:14:15.153Z,23.0
2017-08-06T12:15:20.234Z,23.1
2017-08-06T12:16:26.264Z,23.2
2017-08-06T12:17:32.795Z,23.2
2017-08-06T12:18:36.595Z,23.0
2017-08-06T12:19:46.595Z,23.0
2017-08-06T12:20:52.794Z,23.2
2017-08-06T12:22:00.596Z,23.3
2017-08-06T12:23:06.597Z,23.5
2017-08-06T12:24:13.101Z,23.5
2017-08-06T12:25:19.444Z,23.6
2017-08-06T12:26:26.938Z,23.5
2017-08-06T12:27:34.261Z,23.3
2017-08-06T12:28:41.618Z,23.3
2017-08-06T12:29:45.742Z,23.2
2017-08-06T12:30:50.740Z,23.0
2017-08-06T12:31:57.712Z,23.0
2017-08-06T12:33:05.773Z,23.2
2017-08-06T12:34:11.625Z,23.4
2017-08-06T12:35:17.856Z,23.7
2017-08-06T12:36:27.244Z,24.1
2017-08-06T12:37:33.478Z,24.5
2017-08-06T12:38:41.623Z,25.0
2017-08-06T12:39:47.926Z,25.2
2017-08-06T12:40:52.411Z,25.2
2017-08-06T12:41:59.922Z,25.3
2017-08-06T12:43:03.877Z,25.3
2017-08-06T12:44:11.647Z,25.3
2017-08-06T12:45:17.367Z,25.0
2017-08-06T12:46:23.086Z,24.7
2017-08-06T12:47:30.752Z,24.4
2017-08-06T12:48:37.915Z,24.2
2017-08-06T12:49:46.741Z,24.0
2017-08-06T12:50:50.858Z,23.6
2017-08-06T12:51:56.749Z,23.4
2017-08-06T12:53:02.647Z,23.3
2017-08-06T12:54:07.360Z,23.3
2017-08-06T12:55:14.797Z,23.6
2017-08-06T12:56:20.771Z,23.9
2017-08-06T12:57:26.454Z,24.1
2017-08-06T12:58:32.878Z,24.0
2017-08-06T12:59:40.259Z,23.9
2017-08-06T13:00:47.104Z,23.7
2017-08-06T13:01:51.272Z,23.5
2017-08-06T13:02:56.168Z,23.6
2017-08-06T13:04:01.025Z,23.7
2017-08-06T13:05:05.668Z,23.7
2017-08-06T13:06:10.695Z,23.8
2017-08-06T13:07:19.177Z,23.7
2017-08-06T13:08:24.492Z,23.6
2017-08-06T13:09:31.877Z,23.7
2017-08-06T13:10:36.463Z,23.8
2017-08-06T13:11:42.549Z,24.0
2017-08-06T13:12:48.910Z,24.2
2017-08-06T13:13:55.696Z,24.4
2017-08-06T13:14:59.525Z,24.8
2017-08-06T13:16:07.383Z,25.0
2017-08-06T13:17:14.162Z,25.2
2017-08-06T13:18:20.678Z,25.4
2017-08-06T13:19:27.191Z,25.4
2017-08-06T13:20:32.296Z,25.5
2017-08-06T13:21:37.697Z,25.4
2017-08-06T13:22:44.306Z,25.5
2017-08-06T13:23:49.480Z,25.3
2017-08-06T13:24:55.396Z,25.3
2017-08-06T13:26:00.505Z,25.1
2017-08-06T13:27:05.828Z,24.9
2017-08-06T13:28:13.869Z,25.0
2017-08-06T13:29:20.318Z,24.7
2017-08-06T13:30:25.711Z,24.6
2017-08-06T13:31:33.713Z,24.3
2017-08-06T13:32:37.939Z,24.3
2017-08-06T13:33:46.215Z,23.9
2017-08-06T13:34:50.204Z,23.8
2017-08-06T13:35:57.155Z,23.7
2017-08-06T13:37:03.743Z,23.6
2017-08-06T13:38:09.760Z,23.6
2017-08-06T13:39:13.819Z,23.8
2017-08-06T13:40:19.859Z,24.1
2017-08-06T13:41:25.462Z,24.5
2017-08-06T13:42:33.955Z,25.0
2017-08-06T13:43:40.543Z,25.5
2017-08-06T13:44:45.909Z,26.1
2017-08-06T13:45:50.333Z,26.1
2017-08-06T13:46:59.339Z,25.8
2017-08-06T13:48:05.816Z,26.0
2017-08-06T13:49:11.242Z,26.0
2017-08-06T13:50:18.484Z,26.2
2017-08-06T13:51:25.250Z,26.5
2017-08-06T13:52:29.613Z,26.3
2017-08-06T13:53:34.291Z,26.3
2017-08-06T13:54:38.892Z,26.4
2017-08-06T13:55:43.956Z,26.1
2017-08-06T13:56:49.268Z,26.0
2017-08-06T13:57:53.270Z,26.1
2017-08-06T13:58:57.696Z,26.5
2017-08-06T14:00:04.262Z,26.6
2017-08-06T14:01:10.704Z,26.6
2017-08-06T14:02:17.370Z,26.8
2017-08-06T14:03:22.874Z,26.8
2017-08-06T14:04:28.451Z,26.9
2017-08-06T14:05:34.908Z,27.2
2017-08-06T14:06:40.748Z,26.9
2017-08-06T14:07:46.837Z,26.7
2017-08-06T14:08:53.775Z,26.6
2017-08-06T14:10:00.289Z,26.7
2017-08-06T14:11:07.279Z,26.7
2017-08-06T14:12:11.430Z,26.8
2017-08-06T14:13:19.487Z,26.8
2017-08-06T14:14:27.790Z,26.2
2017-08-06T14:15:31.947Z,25.8
2017-08-06T14:16:36.860Z,25.4
2017-08-06T14:17:43.799Z,25.1
2017-08-06T14:18:50.298Z,24.8
2017-08-06T14:19:54.870Z,25.1
2017-08-06T14:21:01.550Z,25.3
2017-08-06T14:22:07.803Z,25.5
2017-08-06T14:23:12.432Z,26.0
2017-08-06T14:24:19.142Z,26.2
2017-08-06T14:25:24.902Z,26.5
2017-08-06T14:26:30.921Z,26.8
2017-08-06T14:27:35.806Z,26.9
2017-08-06T14:28:42.471Z,26.8
2017-08-06T14:29:50.020Z,26.3
2017-08-06T14:30:55.811Z,26.1
2017-08-06T14:31:59.839Z,26.0
2017-08-06T14:33:05.428Z,26.2
2017-08-06T14:34:13.326Z,26.2
2017-08-06T14:35:19.821Z,26.2
2017-08-06T14:36:25.302Z,26.2
2017-08-06T14:37:32.847Z,26.3
2017-08-06T14:38:36.431Z,26.2